createdAt,value
2018-07-14T00:00:10.423Z,69.43
2018-07-14T00:03:08.605Z,69.28
2018-07-14T00:06:05.547Z,69.09
2018-07-14T00:09:03.596Z,69.81
2018-07-14T00:12:01.291Z,69.46
2018-07-14T00:14:58.790Z,70.07
2018-07-14T00:17:56.366Z,69.65
2018-07-14T00:20:54.173Z,70.15
2018-07-14T00:23:51.598Z,70.37
2018-07-14T00:26:48.815Z,70.68
2018-07-14T00:29:45.956Z,70.07
2018-07-14T00:32:44.068Z,70.87
2018-07-14T00:35:42.078Z,70.19
2018-07-14T00:38:39.475Z,71.49
2018-07-14T00:41:37.407Z,70.82
2018-07-14T00:44:35.602Z,70.70
2018-07-14T00:47:32.796Z,71.11
2018-07-14T00:50:31.071Z,71.37
2018-07-14T00:53:29.016Z,71.13
2018-07-14T00:56:27.070Z,71.12
2018-07-14T00:59:24.115Z,71.01
2018-07-14T01:02:22.334Z,70.89
2018-07-14T01:05:19.349Z,72.45
2018-07-14T01:08:16.646Z,72.14
2018-07-14T01:11:13.875Z,71.83
2018-07-14T01:14:11.987Z,72.52
2018-07-14T01:17:09.307Z,72.11
2018-07-14T01:20:06.579Z,71.93
2018-07-14T01:23:04.217Z,72.30
2018-07-14T01:26:01.858Z,72.69
2018-07-14T01:28:59.601Z,72.13
2018-07-14T01:31:57.353Z,72.43
2018-07-14T01:34:54.479Z,71.55
2018-07-14T01:37:52.399Z,72.08
2018-07-14T01:40:50.512Z,72.85
2018-07-14T01:43:48.363Z,71.99
2018-07-14T01:46:46.394Z,72.62
2018-07-14T01:49:44.477Z,72.55
2018-07-14T01:52:42.371Z,73.37
2018-07-14T01:55:39.590Z,72.94
2018-07-14T01:58:37.042Z,72.14
2018-07-14T02:01:34.178Z,71.82
2018-07-14T02:04:32.169Z,72.10
2018-07-14T02:07:29.447Z,71.21
2018-07-14T02:10:26.958Z,71.86
2018-07-14T02:13:24.339Z,72.79
2018-07-14T02:16:21.625Z,72.26
2018-07-14T02:19:19.744Z,71.43
2018-07-14T02:22:17.046Z,71.52
2018-07-14T02:25:14.386Z,72.68
2018-07-14T02:28:11.971Z,71.37
2018-07-14T02:31:09.369Z,72.46
2018-07-14T02:34:07.209Z,72.78
2018-07-14T02:37:04.129Z,72.84
2018-07-14T02:40:02.138Z,72.20
2018-07-14T02:42:59.355Z,72.67
2018-07-14T02:45:57.298Z,73.43
2018-07-14T02:48:54.266Z,73.65
2018-07-14T02:51:51.307Z,73.02
2018-07-14T02:54:48.534Z,73.00
2018-07-14T02:57:45.757Z,73.15
2018-07-14T03:00:43.754Z,73.22
2018-07-14T03:03:41.637Z,73.46
2018-07-14T03:06:38.736Z,74.00
2018-07-14T03:09:36.064Z,73.62
2018-07-14T03:12:33.198Z,73.20
2018-07-14T03:15:30.649Z,73.32
2018-07-14T03:18:28.235Z,73.28
2018-07-14T03:21:26.394Z,72.57
2018-07-14T03:24:23.658Z,73.41
2018-07-14T03:27:21.175Z,73.21
2018-07-14T03:30:19.314Z,73.73
2018-07-14T03:33:16.864Z,73.10
2018-07-14T03:36:14.635Z,73.54
2018-07-14T03:39:11.779Z,73.70
2018-07-14T03:42:09.859Z,73.81
2018-07-14T03:45:06.919Z,73.54
2018-07-14T03:48:04.054Z,73.62
2018-07-14T03:51:01.587Z,72.61
2018-07-14T03:53:59.295Z,71.87
2018-07-14T03:56:56.803Z,71.30
2018-07-14T03:59:55.035Z,69.81
2018-07-14T04:02:52.191Z,69.76
2018-07-14T04:05:50.451Z,69.11
2018-07-14T04:08:47.959Z,68.25
2018-07-14T04:11:45.130Z,67.14
2018-07-14T04:14:42.312Z,66.03
2018-07-14T04:17:39.616Z,65.06
2018-07-14T04:20:36.722Z,63.52
2018-07-14T04:23:33.982Z,62.53
2018-07-14T04:26:31.989Z,62.25
2018-07-14T04:29:28.942Z,61.50
2018-07-14T04:32:26.020Z,61.35
2018-07-14T04:35:24.145Z,61.53
2018-07-14T04:38:21.615Z,62.17
2018-07-14T04:41:19.743Z,62.94
2018-07-14T04:44:17.081Z,63.11
2018-07-14T04:47:14.558Z,64.33
2018-07-14T04:50:11.887Z,64.80
2018-07-14T04:53:09.216Z,64.90
2018-07-14T04:56:06.489Z,64.96
2018-07-14T04:59:03.774Z,62.82
2018-07-14T05:02:01.830Z,60.70
2018-07-14T05:05:00.046Z,61.43
2018-07-14T05:07:57.392Z,59.54
2018-07-14T05:10:54.562Z,58.50
2018-07-14T05:13:51.788Z,57.59
2018-07-14T05:16:49.478Z,56.33
2018-07-14T05:19:47.448Z,54.58
2018-07-14T05:22:45.516Z,50.44
2018-07-14T05:25:43.688Z,50.23
2018-07-14T05:28:41.116Z,48.74
2018-07-14T05:31:39.311Z,50.41
2018-07-14T05:34:36.648Z,51.52
2018-07-14T05:37:34.667Z,52.13
2018-07-14T05:40:32.645Z,52.29
2018-07-14T05:43:30.589Z,51.69
2018-07-14T05:46:28.830Z,49.49
2018-07-14T05:49:27.034Z,47.39
2018-07-14T05:52:24.338Z,47.88
2018-07-14T05:55:21.915Z,48.65
2018-07-14T05:58:19.274Z,48.01
2018-07-14T06:01:16.827Z,48.94
2018-07-14T06:04:14.384Z,46.38
2018-07-14T06:07:11.526Z,49.46
2018-07-14T06:10:08.502Z,50.72
2018-07-14T06:13:06.579Z,49.24
2018-07-14T06:16:03.853Z,47.40
2018-07-14T06:19:01.284Z,44.13
2018-07-14T06:21:58.543Z,43.82
2018-07-14T06:24:56.214Z,43.27
2018-07-14T06:27:54.327Z,42.38
2018-07-14T06:30:52.249Z,43.23
2018-07-14T06:33:50.187Z,41.88
2018-07-14T06:36:48.315Z,40.41
2018-07-14T06:39:46.497Z,39.10
2018-07-14T06:42:44.460Z,42.33
2018-07-14T06:45:42.558Z,41.58
2018-07-14T06:48:40.453Z,39.90
2018-07-14T06:51:38.519Z,37.45
2018-07-14T06:54:36.554Z,37.84
2018-07-14T06:57:34.647Z,40.22
2018-07-14T07:00:32.536Z,38.04
2018-07-14T07:03:30.692Z,39.54
2018-07-14T07:06:28.043Z,38.87
2018-07-14T07:09:25.234Z,36.39
2018-07-14T07:12:22.277Z,36.83
2018-07-14T07:15:20.331Z,35.72
2018-07-14T07:18:17.594Z,34.11
2018-07-14T07:21:15.016Z,36.62
2018-07-14T07:24:12.216Z,37.08
2018-07-14T07:27:09.687Z,34.42
2018-07-14T07:30:07.160Z,37.38
2018-07-14T07:33:04.327Z,36.76
2018-07-14T07:36:02.299Z,34.74
2018-07-14T07:39:00.407Z,34.05
2018-07-14T07:41:58.414Z,33.62
2018-07-14T07:44:56.393Z,34.15
2018-07-14T07:47:54.403Z,33.35
2018-07-14T07:50:52.473Z,35.29
2018-07-14T07:53:50.430Z,32.66
2018-07-14T07:56:48.299Z,34.04
2018-07-14T07:59:46.181Z,36.56
2018-07-14T08:02:43.176Z,35.29
2018-07-14T08:05:41.016Z,35.55
2018-07-14T08:08:38.921Z,34.09
2018-07-14T08:11:36.846Z,33.10
2018-07-14T08:14:34.159Z,32.50
2018-07-14T08:17:31.672Z,32.97
2018-07-14T08:20:29.077Z,34.90
2018-07-14T08:23:26.431Z,33.81
2018-07-14T08:26:23.984Z,34.48
2018-07-14T08:29:21.149Z,31.87
2018-07-14T08:32:18.781Z,33.66
2018-07-14T08:35:16.222Z,32.94
2018-07-14T08:38:13.867Z,31.42
2018-07-14T08:41:10.894Z,31.54
2018-07-14T08:44:08.728Z,30.32
2018-07-14T08:47:06.223Z,33.45
2018-07-14T08:50:04.371Z,31.89
2018-07-14T08:53:02.468Z,31.13
2018-07-14T08:56:00.747Z,32.22
2018-07-14T08:58:57.938Z,31.84
2018-07-14T09:01:55.035Z,32.57
2018-07-14T09:04:53.235Z,31.74
2018-07-14T09:07:51.290Z,35.34
2018-07-14T09:10:49.281Z,34.80
2018-07-14T09:13:47.594Z,34.13
2018-07-14T09:16:45.918Z,31.97
2018-07-14T09:19:43.878Z,32.52
2018-07-14T09:22:41.767Z,32.25
2018-07-14T09:25:39.039Z,32.70
2018-07-14T09:28:36.257Z,32.06
2018-07-14T09:31:33.843Z,32.82
2018-07-14T09:34:31.915Z,32.35
2018-07-14T09:37:30.068Z,31.86
2018-07-14T09:40:27.231Z,32.66
2018-07-14T09:43:24.636Z,33.05
2018-07-14T09:46:22.348Z,31.43
2018-07-14T09:49:20.270Z,31.21
2018-07-14T09:52:18.270Z,30.07
2018-07-14T09:55:15.974Z,32.44
2018-07-14T09:58:14.054Z,33.21
2018-07-14T10:01:14.383Z,33.43
2018-07-14T10:04:11.611Z,34.18
2018-07-14T10:07:09.543Z,33.49
2018-07-14T10:10:07.897Z,31.84
2018-07-14T10:13:05.969Z,31.74
2018-07-14T10:16:04.127Z,33.01
2018-07-14T10:19:02.235Z,33.53
2018-07-14T10:22:00.422Z,34.03
2018-07-14T10:24:58.443Z,33.50
2018-07-14T10:27:55.472Z,33.18
2018-07-14T10:30:53.635Z,33.45
2018-07-14T10:33:51.595Z,33.77
2018-07-14T10:36:48.835Z,32.81
2018-07-14T10:39:47.060Z,32.76
2018-07-14T10:42:44.301Z,33.27
2018-07-14T10:45:41.747Z,36.27
2018-07-14T10:48:39.231Z,35.03
2018-07-14T10:51:36.425Z,33.65
2018-07-14T10:54:33.951Z,34.43
2018-07-14T10:57:31.624Z,33.65
2018-07-14T11:00:29.110Z,34.10
2018-07-14T11:03:26.364Z,33.28
2018-07-14T11:06:24.098Z,36.00
2018-07-14T11:09:21.985Z,34.74
2018-07-14T11:12:19.292Z,35.28
2018-07-14T11:15:17.199Z,36.22
2018-07-14T11:18:15.058Z,35.72
2018-07-14T11:21:13.087Z,36.87
2018-07-14T11:24:11.141Z,36.29
2018-07-14T11:27:08.934Z,35.75
2018-07-14T11:30:06.762Z,34.98
2018-07-14T11:33:04.659Z,34.80
2018-07-14T11:36:01.827Z,36.29
2018-07-14T11:39:00.017Z,38.64
2018-07-14T11:41:57.857Z,40.64
2018-07-14T11:44:55.788Z,41.26
2018-07-14T11:47:53.043Z,42.08
2018-07-14T11:50:50.287Z,41.92
2018-07-14T11:53:47.876Z,42.04
2018-07-14T11:56:45.119Z,41.88
2018-07-14T11:59:42.220Z,43.22
2018-07-14T12:02:39.697Z,42.46
2018-07-14T12:05:37.092Z,42.84
2018-07-14T12:08:34.688Z,42.55
2018-07-14T12:11:32.318Z,42.62
2018-07-14T12:14:29.702Z,42.76
2018-07-14T12:17:27.601Z,42.67
2018-07-14T12:20:25.207Z,43.35
2018-07-14T12:23:22.732Z,43.37
2018-07-14T12:26:20.699Z,42.08
2018-07-14T12:29:18.791Z,43.27
2018-07-14T12:32:17.009Z,44.30
2018-07-14T12:35:15.173Z,44.09
2018-07-14T12:38:13.587Z,43.52
2018-07-14T12:41:11.620Z,42.06
2018-07-14T12:44:09.642Z,44.20
2018-07-14T12:47:07.518Z,44.40
2018-07-14T12:50:05.485Z,42.85
2018-07-14T12:53:03.457Z,45.00
2018-07-14T12:56:01.402Z,45.39
2018-07-14T12:58:58.590Z,45.29
2018-07-14T13:01:57.015Z,46.07
2018-07-14T13:04:54.166Z,45.50
2018-07-14T13:07:51.550Z,43.68
2018-07-14T13:10:49.568Z,43.62
2018-07-14T13:13:47.478Z,43.00
2018-07-14T13:16:45.111Z,43.86
2018-07-14T13:19:42.958Z,44.35
2018-07-14T13:22:40.323Z,45.43
2018-07-14T13:25:37.844Z,45.18
2018-07-14T13:28:35.679Z,45.44
2018-07-14T13:31:33.659Z,43.80
2018-07-14T13:34:31.002Z,44.55
2018-07-14T13:37:28.867Z,44.20
2018-07-14T13:40:26.944Z,42.15
2018-07-14T13:43:24.263Z,43.35
2018-07-14T13:46:22.219Z,43.31
2018-07-14T13:49:20.174Z,42.15
2018-07-14T13:52:18.455Z,41.85
2018-07-14T13:55:16.407Z,42.97
2018-07-14T13:58:14.473Z,42.82
2018-07-14T14:01:12.488Z,41.07
2018-07-14T14:04:10.526Z,41.92
2018-07-14T14:07:08.427Z,42.76
2018-07-14T14:10:06.590Z,42.51
2018-07-14T14:13:04.619Z,41.43
2018-07-14T14:16:02.262Z,42.47
2018-07-14T14:18:59.553Z,42.22
2018-07-14T14:21:57.531Z,44.16
2018-07-14T14:24:54.528Z,44.48
2018-07-14T14:27:52.645Z,44.38
2018-07-14T14:30:49.844Z,43.33
2018-07-14T14:33:47.403Z,42.53
2018-07-14T14:36:45.202Z,43.98
2018-07-14T14:39:42.619Z,41.87
2018-07-14T14:42:40.135Z,42.44
2018-07-14T14:45:37.747Z,41.21
2018-07-14T14:48:35.851Z,42.35
2018-07-14T14:51:34.060Z,41.27
2018-07-14T14:54:32.051Z,41.34
2018-07-14T14:57:30.171Z,41.67
2018-07-14T15:00:28.090Z,42.79
2018-07-14T15:03:26.016Z,43.13
2018-07-14T15:06:23.303Z,44.33
2018-07-14T15:09:21.498Z,42.30
2018-07-14T15:12:19.412Z,41.78
2018-07-14T15:15:17.428Z,42.08
2018-07-14T15:18:15.300Z,41.40
2018-07-14T15:21:13.122Z,42.90
2018-07-14T15:24:10.038Z,41.61
2018-07-14T15:27:07.231Z,42.03
2018-07-14T15:30:04.640Z,41.89
2018-07-14T15:33:02.823Z,41.97
2018-07-14T15:35:59.694Z,40.85
2018-07-14T15:38:56.636Z,40.50
2018-07-14T15:41:54.175Z,40.12
2018-07-14T15:44:51.705Z,40.15
2018-07-14T15:47:49.728Z,41.23
2018-07-14T15:50:46.935Z,40.79
2018-07-14T15:53:44.168Z,40.83
2018-07-14T15:56:41.638Z,41.23
2018-07-14T15:59:39.463Z,40.83
2018-07-14T16:02:37.102Z,40.92
2018-07-14T16:05:35.215Z,39.89
2018-07-14T16:08:32.302Z,41.47
2018-07-14T16:11:30.243Z,40.77
2018-07-14T16:14:28.088Z,40.24
2018-07-14T16:17:26.244Z,40.62
2018-07-14T16:20:23.614Z,41.54
2018-07-14T16:23:21.655Z,41.27
2018-07-14T16:26:19.273Z,39.96
2018-07-14T16:29:16.426Z,40.66
2018-07-14T16:32:14.162Z,40.65
2018-07-14T16:35:12.278Z,40.22
2018-07-14T16:38:10.219Z,40.51
2018-07-14T16:41:07.297Z,40.44
2018-07-14T16:44:04.639Z,40.49
2018-07-14T16:47:02.611Z,40.41
2018-07-14T16:49:59.817Z,41.29
2018-07-14T16:52:57.776Z,40.81
2018-07-14T16:55:55.719Z,40.79
2018-07-14T16:58:53.606Z,41.20
2018-07-14T17:01:50.815Z,40.56
2018-07-14T17:04:48.380Z,40.60
2018-07-14T17:07:45.779Z,41.00
2018-07-14T17:10:42.980Z,41.42
2018-07-14T17:13:40.712Z,42.13
2018-07-14T17:16:38.802Z,41.75
2018-07-14T17:19:36.332Z,41.63
2018-07-14T17:22:33.583Z,42.09
2018-07-14T17:25:31.444Z,40.76
2018-07-14T17:28:29.188Z,41.04
2018-07-14T17:31:27.176Z,41.13
2018-07-14T17:34:24.259Z,41.96
2018-07-14T17:37:22.106Z,41.62
2018-07-14T17:40:19.628Z,41.61
2018-07-14T17:43:17.119Z,41.99
2018-07-14T17:46:15.946Z,41.47
2018-07-14T17:49:13.105Z,42.03
2018-07-14T17:52:10.656Z,42.80
2018-07-14T17:55:08.709Z,43.31
2018-07-14T17:58:06.812Z,42.76
2018-07-14T18:01:04.022Z,42.13
2018-07-14T18:04:01.852Z,43.21
2018-07-14T18:06:59.658Z,43.60
2018-07-14T18:09:57.370Z,42.92
2018-07-14T18:12:55.199Z,42.63
2018-07-14T18:15:53.170Z,43.26
2018-07-14T18:18:51.345Z,42.88
2018-07-14T18:21:48.611Z,43.31
2018-07-14T18:24:46.739Z,43.06
2018-07-14T18:27:44.489Z,43.34
2018-07-14T18:30:42.286Z,43.57
2018-07-14T18:33:39.298Z,43.32
2018-07-14T18:36:37.418Z,43.99
2018-07-14T18:39:35.066Z,44.58
2018-07-14T18:42:33.076Z,43.54
2018-07-14T18:45:30.591Z,44.94
2018-07-14T18:48:28.407Z,44.76
2018-07-14T18:51:26.189Z,44.82
2018-07-14T18:54:24.162Z,44.81
2018-07-14T18:57:21.367Z,45.10
2018-07-14T19:00:18.646Z,45.92
2018-07-14T19:03:16.231Z,45.12
2018-07-14T19:06:13.503Z,45.97
2018-07-14T19:09:11.866Z,46.07
2018-07-14T19:12:09.929Z,46.45
2018-07-14T19:15:07.638Z,46.70
2018-07-14T19:18:04.996Z,46.64
2018-07-14T19:21:02.156Z,47.53
2018-07-14T19:23:59.714Z,47.39
2018-07-14T19:26:57.132Z,48.21
2018-07-14T19:29:54.328Z,47.55
2018-07-14T19:32:51.671Z,48.58
2018-07-14T19:35:49.663Z,48.04
2018-07-14T19:38:46.614Z,48.01
2018-07-14T19:41:44.400Z,48.74
2018-07-14T19:44:41.680Z,49.42
2018-07-14T19:47:38.886Z,48.87
2018-07-14T19:50:36.727Z,49.96
2018-07-14T19:53:34.538Z,50.22
2018-07-14T19:56:32.287Z,50.88
2018-07-14T19:59:30.214Z,50.58
2018-07-14T20:02:27.721Z,50.90
2018-07-14T20:05:25.458Z,50.78
2018-07-14T20:08:22.888Z,51.51
2018-07-14T20:11:20.090Z,51.69
2018-07-14T20:14:17.355Z,52.21
2018-07-14T20:17:15.606Z,51.80
2018-07-14T20:20:13.031Z,51.60
2018-07-14T20:23:10.860Z,52.41
2018-07-14T20:26:08.891Z,52.90
2018-07-14T20:29:06.088Z,52.69
2018-07-14T20:32:03.743Z,53.01
2018-07-14T20:35:01.451Z,52.53
2018-07-14T20:37:59.296Z,53.51
2018-07-14T20:40:56.879Z,53.88
2018-07-14T20:43:54.870Z,53.56
2018-07-14T20:46:52.918Z,54.65
2018-07-14T20:49:51.049Z,55.69
2018-07-14T20:52:49.259Z,54.60
2018-07-14T20:55:46.848Z,53.75
2018-07-14T20:58:44.839Z,53.69
2018-07-14T21:01:42.787Z,53.98
2018-07-14T21:04:41.058Z,53.59
2018-07-14T21:07:39.158Z,54.52
2018-07-14T21:10:36.896Z,54.75
2018-07-14T21:13:34.610Z,54.87
2018-07-14T21:16:32.561Z,54.45
2018-07-14T21:19:30.628Z,55.37
2018-07-14T21:22:28.503Z,55.28
2018-07-14T21:25:26.716Z,55.61
2018-07-14T21:28:24.216Z,55.25
2018-07-14T21:31:21.519Z,56.16
2018-07-14T21:34:18.987Z,55.87
2018-07-14T21:37:16.160Z,55.71
2018-07-14T21:40:13.828Z,56.02
2018-07-14T21:43:11.266Z,56.20
2018-07-14T21:46:08.959Z,56.04
2018-07-14T21:49:06.086Z,56.23
2018-07-14T21:52:03.551Z,57.53
2018-07-14T21:55:01.565Z,57.30
2018-07-14T21:57:58.751Z,59.08
2018-07-14T22:01:02.686Z,59.70
2018-07-14T22:04:00.534Z,60.08
2018-07-14T22:06:59.626Z,60.25
2018-07-14T22:09:57.306Z,61.06
2018-07-14T22:12:55.067Z,61.41
2018-07-14T22:15:52.451Z,61.17
2018-07-14T22:18:50.620Z,61.78
2018-07-14T22:21:48.467Z,61.75
2018-07-14T22:24:46.110Z,61.82
2018-07-14T22:27:44.294Z,62.44
2018-07-14T22:30:42.526Z,62.93
2018-07-14T22:33:40.411Z,62.58
2018-07-14T22:36:37.552Z,62.30
2018-07-14T22:39:34.936Z,63.08
2018-07-14T22:42:32.059Z,63.46
2018-07-14T22:45:29.286Z,63.56
2018-07-14T22:48:26.398Z,63.37
2018-07-14T22:51:24.457Z,61.59
2018-07-14T22:54:22.717Z,61.96
2018-07-14T22:57:19.867Z,62.16
2018-07-14T23:00:17.979Z,61.54
2018-07-14T23:03:15.573Z,61.71
2018-07-14T23:06:12.758Z,62.18
2018-07-14T23:09:11.087Z,62.16
2018-07-14T23:12:09.229Z,61.75
2018-07-14T23:15:06.637Z,62.62
2018-07-14T23:18:04.565Z,62.98
2018-07-14T23:21:02.556Z,62.51
2018-07-14T23:24:09.539Z,63.50
2018-07-14T23:27:07.483Z,62.41
2018-07-14T23:30:04.782Z,63.29
2018-07-14T23:33:02.805Z,62.07
2018-07-14T23:36:00.026Z,63.02
2018-07-14T23:38:58.008Z,63.24
2018-07-14T23:41:55.523Z,63.41
2018-07-14T23:44:52.790Z,63.63
2018-07-14T23:47:51.006Z,63.09
2018-07-14T23:50:48.817Z,63.11
2018-07-14T23:53:46.178Z,63.60
2018-07-14T23:56:43.583Z,63.83
2018-07-14T23:59:40.700Z,65.17
